Catimbau, Brazil
Current Conditions -  °F | °C
As of 9:00 AM on Sunday 25 Jan 2015 (Local Time) from SBUF Reporting Station
Broken Clouds Broken Clouds  
Wind Chill: 84°   Ceiling: 1800
Heat Index: 90°   Visibility: 6mi
Dew Point: 72°   Wind: 6mph
Humidity: 66%   Direction: 100°E
Pressure: 30"   Gusts: NA
Location:  8.59°S, 37.25°W
Report Text: SBUF 251200Z 10005KT 9999 BKN018 29/22 Q1016
Loading
Personal Weather Stations






























Interactive Weather Map New forecast layout! Learn more

10-Day Weather Forecast

Advertisements
Track Severe Weather on mobile